sensor_id;sensor_type;location;lat;lon;timestamp;P1;durP1;ratioP1;P2;durP2;ratioP2
18302;SDS011;9277;37.980;23.748;2023-07-24T00:01:47;9.63;;;4.60;;
18302;SDS011;9277;37.980;23.748;2023-07-24T00:04:14;18.33;;;5.55;;
18302;SDS011;9277;37.980;23.748;2023-07-24T00:06:40;15.07;;;4.25;;
18302;SDS011;9277;37.980;23.748;2023-07-24T00:09:07;13.20;;;4.85;;
18302;SDS011;9277;37.980;23.748;2023-07-24T00:11:35;9.88;;;4.43;;
18302;SDS011;9277;37.980;23.748;2023-07-24T00:14:02;14.07;;;4.65;;
18302;SDS011;9277;37.980;23.748;2023-07-24T00:16:29;15.68;;;4.95;;
18302;SDS011;9277;37.980;23.748;2023-07-24T00:18:56;9.00;;;4.00;;
18302;SDS011;9277;37.980;23.748;2023-07-24T00:21:23;11.38;;;4.28;;
18302;SDS011;9277;37.980;23.748;2023-07-24T00:23:49;13.15;;;3.92;;
18302;SDS011;9277;37.980;23.748;2023-07-24T00:26:16;9.15;;;4.68;;
18302;SDS011;9277;37.980;23.748;2023-07-24T00:28:44;15.40;;;4.95;;
18302;SDS011;9277;37.980;23.748;2023-07-24T00:31:11;14.27;;;4.28;;
18302;SDS011;9277;37.980;23.748;2023-07-24T00:33:38;15.48;;;5.03;;
18302;SDS011;9277;37.980;23.748;2023-07-24T00:36:05;11.00;;;4.75;;
18302;SDS011;9277;37.980;23.748;2023-07-24T00:38:31;14.07;;;4.72;;
18302;SDS011;9277;37.980;23.748;2023-07-24T00:40:58;9.73;;;4.13;;
18302;SDS011;9277;37.980;23.748;2023-07-24T00:43:25;11.75;;;5.57;;
18302;SDS011;9277;37.980;23.748;2023-07-24T00:45:53;18.65;;;4.88;;
18302;SDS011;9277;37.980;23.748;2023-07-24T00:48:20;16.83;;;5.47;;
18302;SDS011;9277;37.980;23.748;2023-07-24T00:50:47;14.27;;;4.55;;
18302;SDS011;9277;37.980;23.748;2023-07-24T00:53:14;13.40;;;4.85;;
18302;SDS011;9277;37.980;23.748;2023-07-24T00:55:42;13.68;;;4.75;;
18302;SDS011;9277;37.980;23.748;2023-07-24T00:58:09;8.00;;;3.90;;
18302;SDS011;9277;37.980;23.748;2023-07-24T01:00:37;8.18;;;3.58;;
18302;SDS011;9277;37.980;23.748;2023-07-24T01:03:05;10.60;;;3.75;;
18302;SDS011;9277;37.980;23.748;2023-07-24T01:05:32;12.88;;;4.40;;
18302;SDS011;9277;37.980;23.748;2023-07-24T01:07:59;15.15;;;4.38;;
18302;SDS011;9277;37.980;23.748;2023-07-24T01:10:26;8.70;;;3.63;;
18302;SDS011;9277;37.980;23.748;2023-07-24T01:12:55;9.32;;;3.95;;
18302;SDS011;9277;37.980;23.748;2023-07-24T01:15:25;8.48;;;3.50;;
18302;SDS011;9277;37.980;23.748;2023-07-24T01:17:56;15.75;;;4.28;;
18302;SDS011;9277;37.980;23.748;2023-07-24T01:20:25;10.65;;;3.50;;
18302;SDS011;9277;37.980;23.748;2023-07-24T01:22:58;11.05;;;3.97;;
18302;SDS011;9277;37.980;23.748;2023-07-24T01:25:31;13.07;;;3.45;;
18302;SDS011;9277;37.980;23.748;2023-07-24T01:28:05;16.05;;;3.85;;
18302;SDS011;9277;37.980;23.748;2023-07-24T01:30:32;11.85;;;3.45;;
18302;SDS011;9277;37.980;23.748;2023-07-24T01:32:59;9.27;;;2.92;;
18302;SDS011;9277;37.980;23.748;2023-07-24T01:35:26;12.75;;;3.42;;
18302;SDS011;9277;37.980;23.748;2023-07-24T01:37:53;7.57;;;3.13;;
18302;SDS011;9277;37.980;23.748;2023-07-24T01:40:22;11.02;;;4.10;;
18302;SDS011;9277;37.980;23.748;2023-07-24T01:42:49;10.98;;;3.63;;
18302;SDS011;9277;37.980;23.748;2023-07-24T01:45:18;8.02;;;3.08;;
18302;SDS011;9277;37.980;23.748;2023-07-24T01:47:45;7.75;;;3.20;;
18302;SDS011;9277;37.980;23.748;2023-07-24T01:50:11;6.40;;;3.28;;
18302;SDS011;9277;37.980;23.748;2023-07-24T01:52:40;6.75;;;2.97;;
18302;SDS011;9277;37.980;23.748;2023-07-24T01:55:06;6.00;;;3.38;;
18302;SDS011;9277;37.980;23.748;2023-07-24T01:57:34;13.05;;;3.53;;
18302;SDS011;9277;37.980;23.748;2023-07-24T02:00:01;9.20;;;3.03;;
18302;SDS011;9277;37.980;23.748;2023-07-24T02:02:29;6.82;;;2.78;;
18302;SDS011;9277;37.980;23.748;2023-07-24T02:04:55;6.97;;;3.45;;
18302;SDS011;9277;37.980;23.748;2023-07-24T02:07:22;11.43;;;3.97;;
18302;SDS011;9277;37.980;23.748;2023-07-24T02:09:49;7.43;;;3.00;;
18302;SDS011;9277;37.980;23.748;2023-07-24T02:12:16;11.40;;;3.60;;
18302;SDS011;9277;37.980;23.748;2023-07-24T02:14:42;5.68;;;3.47;;
18302;SDS011;9277;37.980;23.748;2023-07-24T02:17:09;5.38;;;3.13;;
18302;SDS011;9277;37.980;23.748;2023-07-24T02:19:37;15.95;;;3.13;;
18302;SDS011;9277;37.980;23.748;2023-07-24T02:22:04;8.27;;;3.47;;
18302;SDS011;9277;37.980;23.748;2023-07-24T02:24:31;9.38;;;3.40;;
18302;SDS011;9277;37.980;23.748;2023-07-24T02:26:57;13.32;;;3.67;;
18302;SDS011;9277;37.980;23.748;2023-07-24T02:29:24;4.82;;;3.30;;
18302;SDS011;9277;37.980;23.748;2023-07-24T02:31:51;5.65;;;2.88;;
18302;SDS011;9277;37.980;23.748;2023-07-24T02:34:17;6.63;;;3.40;;
18302;SDS011;9277;37.980;23.748;2023-07-24T02:36:46;5.55;;;3.03;;
18302;SDS011;9277;37.980;23.748;2023-07-24T02:39:12;8.63;;;3.17;;
18302;SDS011;9277;37.980;23.748;2023-07-24T02:41:39;9.00;;;3.58;;
18302;SDS011;9277;37.980;23.748;2023-07-24T02:44:06;7.93;;;3.83;;
18302;SDS011;9277;37.980;23.748;2023-07-24T02:46:32;9.07;;;3.63;;
18302;SDS011;9277;37.980;23.748;2023-07-24T02:48:59;7.18;;;3.33;;
18302;SDS011;9277;37.980;23.748;2023-07-24T02:51:26;9.85;;;4.03;;
18302;SDS011;9277;37.980;23.748;2023-07-24T02:53:54;6.35;;;3.42;;
18302;SDS011;9277;37.980;23.748;2023-07-24T02:56:21;7.03;;;3.30;;
18302;SDS011;9277;37.980;23.748;2023-07-24T02:58:48;9.32;;;3.60;;
18302;SDS011;9277;37.980;23.748;2023-07-24T03:01:15;8.73;;;3.17;;
18302;SDS011;9277;37.980;23.748;2023-07-24T03:03:41;8.10;;;2.80;;
18302;SDS011;9277;37.980;23.748;2023-07-24T03:06:08;9.63;;;3.60;;
18302;SDS011;9277;37.980;23.748;2023-07-24T03:08:35;12.40;;;3.42;;
18302;SDS011;9277;37.980;23.748;2023-07-24T03:11:05;11.45;;;3.97;;
18302;SDS011;9277;37.980;23.748;2023-07-24T03:13:32;10.43;;;3.92;;
18302;SDS011;9277;37.980;23.748;2023-07-24T03:15:59;11.07;;;4.03;;
18302;SDS011;9277;37.980;23.748;2023-07-24T03:18:25;6.80;;;3.97;;
18302;SDS011;9277;37.980;23.748;2023-07-24T03:20:52;11.07;;;3.55;;
18302;SDS011;9277;37.980;23.748;2023-07-24T03:23:19;11.63;;;4.00;;
18302;SDS011;9277;37.980;23.748;2023-07-24T03:25:46;6.68;;;3.35;;
18302;SDS011;9277;37.980;23.748;2023-07-24T03:28:14;7.90;;;3.78;;
18302;SDS011;9277;37.980;23.748;2023-07-24T03:30:41;11.85;;;4.05;;
18302;SDS011;9277;37.980;23.748;2023-07-24T03:33:08;7.53;;;3.55;;
18302;SDS011;9277;37.980;23.748;2023-07-24T03:35:37;6.43;;;3.70;;
18302;SDS011;9277;37.980;23.748;2023-07-24T03:38:04;9.10;;;3.95;;
18302;SDS011;9277;37.980;23.748;2023-07-24T03:40:30;7.00;;;4.05;;
18302;SDS011;9277;37.980;23.748;2023-07-24T03:42:57;10.02;;;4.10;;
18302;SDS011;9277;37.980;23.748;2023-07-24T03:45:25;10.25;;;4.00;;
18302;SDS011;9277;37.980;23.748;2023-07-24T03:47:52;8.65;;;3.97;;
18302;SDS011;9277;37.980;23.748;2023-07-24T03:50:19;9.52;;;3.78;;
18302;SDS011;9277;37.980;23.748;2023-07-24T03:52:45;9.45;;;3.50;;
18302;SDS011;9277;37.980;23.748;2023-07-24T03:55:12;11.82;;;4.13;;
18302;SDS011;9277;37.980;23.748;2023-07-24T03:57:39;7.57;;;4.15;;
18302;SDS011;9277;37.980;23.748;2023-07-24T04:00:06;8.45;;;3.60;;
18302;SDS011;9277;37.980;23.748;2023-07-24T04:02:35;7.13;;;3.40;;
18302;SDS011;9277;37.980;23.748;2023-07-24T04:05:02;14.07;;;4.40;;
18302;SDS011;9277;37.980;23.748;2023-07-24T04:07:29;8.60;;;3.83;;
18302;SDS011;9277;37.980;23.748;2023-07-24T04:09:55;8.20;;;3.63;;
18302;SDS011;9277;37.980;23.748;2023-07-24T04:12:22;7.35;;;3.33;;
18302;SDS011;9277;37.980;23.748;2023-07-24T04:14:49;14.23;;;3.83;;
18302;SDS011;9277;37.980;23.748;2023-07-24T04:17:16;10.38;;;3.83;;
18302;SDS011;9277;37.980;23.748;2023-07-24T04:19:44;8.15;;;3.95;;
18302;SDS011;9277;37.980;23.748;2023-07-24T04:22:10;6.63;;;3.42;;
18302;SDS011;9277;37.980;23.748;2023-07-24T04:24:37;13.65;;;3.88;;
18302;SDS011;9277;37.980;23.748;2023-07-24T04:27:04;12.10;;;3.72;;
18302;SDS011;9277;37.980;23.748;2023-07-24T04:29:31;9.65;;;3.42;;
18302;SDS011;9277;37.980;23.748;2023-07-24T04:31:57;11.25;;;4.40;;
18302;SDS011;9277;37.980;23.748;2023-07-24T04:34:24;4.25;;;3.25;;
18302;SDS011;9277;37.980;23.748;2023-07-24T04:36:52;13.07;;;3.90;;
18302;SDS011;9277;37.980;23.748;2023-07-24T04:39:19;10.60;;;3.17;;
18302;SDS011;9277;37.980;23.748;2023-07-24T04:41:46;10.50;;;3.53;;
18302;SDS011;9277;37.980;23.748;2023-07-24T04:44:12;9.10;;;3.25;;
18302;SDS011;9277;37.980;23.748;2023-07-24T04:46:39;12.95;;;4.22;;
18302;SDS011;9277;37.980;23.748;2023-07-24T04:49:06;8.30;;;3.67;;
18302;SDS011;9277;37.980;23.748;2023-07-24T04:51:32;14.38;;;3.50;;
18302;SDS011;9277;37.980;23.748;2023-07-24T04:54:00;5.78;;;3.45;;
18302;SDS011;9277;37.980;23.748;2023-07-24T04:56:27;14.18;;;3.65;;
18302;SDS011;9277;37.980;23.748;2023-07-24T04:58:54;5.75;;;3.40;;
18302;SDS011;9277;37.980;23.748;2023-07-24T05:01:21;9.27;;;3.35;;
18302;SDS011;9277;37.980;23.748;2023-07-24T05:03:47;10.00;;;3.63;;
18302;SDS011;9277;37.980;23.748;2023-07-24T05:06:14;12.57;;;4.05;;
18302;SDS011;9277;37.980;23.748;2023-07-24T05:08:41;8.95;;;3.88;;
18302;SDS011;9277;37.980;23.748;2023-07-24T05:11:09;9.65;;;3.75;;
18302;SDS011;9277;37.980;23.748;2023-07-24T05:13:36;9.75;;;4.15;;
18302;SDS011;9277;37.980;23.748;2023-07-24T05:16:03;8.50;;;3.88;;
18302;SDS011;9277;37.980;23.748;2023-07-24T05:18:30;8.93;;;3.53;;
18302;SDS011;9277;37.980;23.748;2023-07-24T05:20:56;9.77;;;3.35;;
18302;SDS011;9277;37.980;23.748;2023-07-24T05:23:23;8.65;;;3.80;;
18302;SDS011;9277;37.980;23.748;2023-07-24T05:25:55;11.70;;;3.80;;
18302;SDS011;9277;37.980;23.748;2023-07-24T05:28:24;9.13;;;4.20;;
18302;SDS011;9277;37.980;23.748;2023-07-24T05:30:51;6.80;;;3.30;;
18302;SDS011;9277;37.980;23.748;2023-07-24T05:33:17;8.57;;;4.43;;
18302;SDS011;9277;37.980;23.748;2023-07-24T05:35:44;12.32;;;4.32;;
18302;SDS011;9277;37.980;23.748;2023-07-24T05:38:11;14.50;;;4.50;;
18302;SDS011;9277;37.980;23.748;2023-07-24T05:40:38;15.05;;;3.80;;
18302;SDS011;9277;37.980;23.748;2023-07-24T05:43:06;10.77;;;4.10;;
18302;SDS011;9277;37.980;23.748;2023-07-24T05:45:34;9.93;;;3.85;;
18302;SDS011;9277;37.980;23.748;2023-07-24T05:48:01;19.33;;;4.75;;
18302;SDS011;9277;37.980;23.748;2023-07-24T05:50:28;15.13;;;4.07;;
18302;SDS011;9277;37.980;23.748;2023-07-24T05:52:55;12.38;;;5.05;;
18302;SDS011;9277;37.980;23.748;2023-07-24T05:55:21;11.73;;;4.28;;
18302;SDS011;9277;37.980;23.748;2023-07-24T05:57:48;15.82;;;4.75;;
18302;SDS011;9277;37.980;23.748;2023-07-24T06:00:15;8.05;;;4.35;;
18302;SDS011;9277;37.980;23.748;2023-07-24T06:02:43;14.55;;;5.00;;
18302;SDS011;9277;37.980;23.748;2023-07-24T06:05:10;9.98;;;4.72;;
18302;SDS011;9277;37.980;23.748;2023-07-24T06:07:37;11.90;;;4.10;;
18302;SDS011;9277;37.980;23.748;2023-07-24T06:10:04;13.85;;;4.75;;
18302;SDS011;9277;37.980;23.748;2023-07-24T06:12:31;8.65;;;3.85;;
18302;SDS011;9277;37.980;23.748;2023-07-24T06:14:57;8.13;;;4.25;;
18302;SDS011;9277;37.980;23.748;2023-07-24T06:17:24;12.52;;;4.55;;
18302;SDS011;9277;37.980;23.748;2023-07-24T06:19:52;9.40;;;4.80;;
18302;SDS011;9277;37.980;23.748;2023-07-24T06:22:19;8.93;;;4.55;;
18302;SDS011;9277;37.980;23.748;2023-07-24T06:24:46;10.73;;;4.63;;
18302;SDS011;9277;37.980;23.748;2023-07-24T06:27:12;12.57;;;5.15;;
18302;SDS011;9277;37.980;23.748;2023-07-24T06:29:39;9.63;;;4.45;;
18302;SDS011;9277;37.980;23.748;2023-07-24T06:32:06;9.63;;;4.43;;
18302;SDS011;9277;37.980;23.748;2023-07-24T06:34:33;10.48;;;5.55;;
18302;SDS011;9277;37.980;23.748;2023-07-24T06:37:01;12.18;;;5.07;;
18302;SDS011;9277;37.980;23.748;2023-07-24T06:39:28;9.57;;;5.13;;
18302;SDS011;9277;37.980;23.748;2023-07-24T06:41:54;12.88;;;4.80;;
18302;SDS011;9277;37.980;23.748;2023-07-24T06:44:21;9.73;;;4.47;;
18302;SDS011;9277;37.980;23.748;2023-07-24T06:46:48;13.00;;;5.38;;
18302;SDS011;9277;37.980;23.748;2023-07-24T06:49:15;8.93;;;4.43;;
18302;SDS011;9277;37.980;23.748;2023-07-24T06:51:41;10.60;;;4.70;;
18302;SDS011;9277;37.980;23.748;2023-07-24T06:54:12;7.15;;;4.75;;
18302;SDS011;9277;37.980;23.748;2023-07-24T06:56:39;15.90;;;5.53;;
18302;SDS011;9277;37.980;23.748;2023-07-24T06:59:06;9.55;;;4.65;;
18302;SDS011;9277;37.980;23.748;2023-07-24T07:01:33;11.57;;;5.10;;
18302;SDS011;9277;37.980;23.748;2023-07-24T07:03:59;10.95;;;4.95;;
18302;SDS011;9277;37.980;23.748;2023-07-24T07:06:26;8.00;;;4.30;;
18302;SDS011;9277;37.980;23.748;2023-07-24T07:08:53;12.20;;;5.82;;
18302;SDS011;9277;37.980;23.748;2023-07-24T07:11:22;10.43;;;5.05;;
18302;SDS011;9277;37.980;23.748;2023-07-24T07:13:49;13.95;;;4.65;;
18302;SDS011;9277;37.980;23.748;2023-07-24T07:16:16;11.18;;;5.32;;
18302;SDS011;9277;37.980;23.748;2023-07-24T07:18:44;12.68;;;5.28;;
18302;SDS011;9277;37.980;23.748;2023-07-24T07:21:11;9.32;;;4.85;;
18302;SDS011;9277;37.980;23.748;2023-07-24T07:23:37;9.05;;;5.35;;
18302;SDS011;9277;37.980;23.748;2023-07-24T07:26:04;12.88;;;5.45;;
18302;SDS011;9277;37.980;23.748;2023-07-24T07:28:32;11.05;;;5.03;;
18302;SDS011;9277;37.980;23.748;2023-07-24T07:30:59;10.63;;;4.47;;
18302;SDS011;9277;37.980;23.748;2023-07-24T07:33:30;9.20;;;4.32;;
18302;SDS011;9277;37.980;23.748;2023-07-24T07:35:57;6.57;;;4.18;;
18302;SDS011;9277;37.980;23.748;2023-07-24T07:38:24;10.40;;;4.82;;
18302;SDS011;9277;37.980;23.748;2023-07-24T07:40:51;10.52;;;4.25;;
18302;SDS011;9277;37.980;23.748;2023-07-24T07:43:17;9.07;;;5.00;;
18302;SDS011;9277;37.980;23.748;2023-07-24T07:45:46;9.98;;;4.97;;
18302;SDS011;9277;37.980;23.748;2023-07-24T07:48:13;9.38;;;5.25;;
18302;SDS011;9277;37.980;23.748;2023-07-24T07:50:39;11.02;;;5.10;;
18302;SDS011;9277;37.980;23.748;2023-07-24T07:53:06;10.10;;;4.95;;
18302;SDS011;9277;37.980;23.748;2023-07-24T07:55:33;14.38;;;5.20;;
18302;SDS011;9277;37.980;23.748;2023-07-24T07:58:00;12.23;;;5.60;;
18302;SDS011;9277;37.980;23.748;2023-07-24T08:00:26;11.57;;;4.65;;
18302;SDS011;9277;37.980;23.748;2023-07-24T08:02:54;9.75;;;4.45;;
18302;SDS011;9277;37.980;23.748;2023-07-24T08:05:21;11.68;;;5.80;;
18302;SDS011;9277;37.980;23.748;2023-07-24T08:07:48;11.95;;;5.20;;
18302;SDS011;9277;37.980;23.748;2023-07-24T08:10:15;11.13;;;5.13;;
18302;SDS011;9277;37.980;23.748;2023-07-24T08:12:42;12.05;;;5.30;;
18302;SDS011;9277;37.980;23.748;2023-07-24T08:15:09;9.65;;;5.15;;
18302;SDS011;9277;37.980;23.748;2023-07-24T08:17:35;9.80;;;4.75;;
18302;SDS011;9277;37.980;23.748;2023-07-24T08:20:04;10.75;;;5.95;;
18302;SDS011;9277;37.980;23.748;2023-07-24T08:22:31;13.77;;;6.28;;
18302;SDS011;9277;37.980;23.748;2023-07-24T08:24:58;8.75;;;4.80;;
18302;SDS011;9277;37.980;23.748;2023-07-24T08:27:25;8.52;;;4.85;;
18302;SDS011;9277;37.980;23.748;2023-07-24T08:29:51;11.57;;;5.03;;
18302;SDS011;9277;37.980;23.748;2023-07-24T08:32:18;13.00;;;5.07;;
18302;SDS011;9277;37.980;23.748;2023-07-24T08:34:45;9.57;;;4.72;;
18302;SDS011;9277;37.980;23.748;2023-07-24T08:37:14;7.82;;;4.22;;
18302;SDS011;9277;37.980;23.748;2023-07-24T08:39:40;12.45;;;4.85;;
18302;SDS011;9277;37.980;23.748;2023-07-24T08:42:08;12.85;;;4.68;;
18302;SDS011;9277;37.980;23.748;2023-07-24T08:44:35;9.07;;;4.10;;
18302;SDS011;9277;37.980;23.748;2023-07-24T08:47:03;11.05;;;4.47;;
18302;SDS011;9277;37.980;23.748;2023-07-24T08:49:31;10.07;;;4.53;;
18302;SDS011;9277;37.980;23.748;2023-07-24T08:51:58;9.02;;;4.13;;
18302;SDS011;9277;37.980;23.748;2023-07-24T08:54:27;11.27;;;4.72;;
18302;SDS011;9277;37.980;23.748;2023-07-24T08:56:54;10.77;;;4.70;;
18302;SDS011;9277;37.980;23.748;2023-07-24T08:59:21;8.98;;;4.20;;
18302;SDS011;9277;37.980;23.748;2023-07-24T09:01:47;8.85;;;4.80;;
18302;SDS011;9277;37.980;23.748;2023-07-24T09:04:14;7.90;;;4.32;;
18302;SDS011;9277;37.980;23.748;2023-07-24T09:06:41;12.27;;;4.85;;
18302;SDS011;9277;37.980;23.748;2023-07-24T09:09:14;12.05;;;4.30;;
18302;SDS011;9277;37.980;23.748;2023-07-24T09:11:52;7.18;;;4.30;;
18302;SDS011;9277;37.980;23.748;2023-07-24T09:14:22;11.43;;;4.43;;
18302;SDS011;9277;37.980;23.748;2023-07-24T09:16:49;8.60;;;4.22;;
18302;SDS011;9277;37.980;23.748;2023-07-24T09:19:18;9.35;;;4.75;;
18302;SDS011;9277;37.980;23.748;2023-07-24T09:21:45;11.57;;;4.10;;
18302;SDS011;9277;37.980;23.748;2023-07-24T09:24:12;9.60;;;4.57;;
18302;SDS011;9277;37.980;23.748;2023-07-24T09:26:49;9.23;;;4.10;;
18302;SDS011;9277;37.980;23.748;2023-07-24T09:29:18;10.25;;;4.53;;
18302;SDS011;9277;37.980;23.748;2023-07-24T09:31:45;7.95;;;4.55;;
18302;SDS011;9277;37.980;23.748;2023-07-24T09:34:15;9.23;;;4.32;;
18302;SDS011;9277;37.980;23.748;2023-07-24T09:36:43;9.80;;;4.10;;
18302;SDS011;9277;37.980;23.748;2023-07-24T09:39:09;8.25;;;4.25;;
18302;SDS011;9277;37.980;23.748;2023-07-24T09:41:37;8.95;;;4.30;;
18302;SDS011;9277;37.980;23.748;2023-07-24T09:44:04;10.10;;;4.47;;
18302;SDS011;9277;37.980;23.748;2023-07-24T09:46:32;9.38;;;4.25;;
18302;SDS011;9277;37.980;23.748;2023-07-24T09:48:59;12.07;;;4.05;;
18302;SDS011;9277;37.980;23.748;2023-07-24T09:51:27;9.18;;;4.18;;
18302;SDS011;9277;37.980;23.748;2023-07-24T09:53:55;11.18;;;4.60;;
18302;SDS011;9277;37.980;23.748;2023-07-24T09:56:22;9.90;;;4.45;;
18302;SDS011;9277;37.980;23.748;2023-07-24T09:58:49;8.18;;;3.90;;
18302;SDS011;9277;37.980;23.748;2023-07-24T10:01:19;6.85;;;3.83;;
18302;SDS011;9277;37.980;23.748;2023-07-24T10:03:48;8.43;;;3.92;;
18302;SDS011;9277;37.980;23.748;2023-07-24T10:06:15;10.63;;;4.28;;
18302;SDS011;9277;37.980;23.748;2023-07-24T10:08:42;7.82;;;3.83;;
18302;SDS011;9277;37.980;23.748;2023-07-24T10:11:09;10.20;;;4.15;;
18302;SDS011;9277;37.980;23.748;2023-07-24T10:13:37;10.88;;;4.10;;
18302;SDS011;9277;37.980;23.748;2023-07-24T10:16:04;8.23;;;4.20;;
18302;SDS011;9277;37.980;23.748;2023-07-24T10:18:32;7.97;;;4.10;;
18302;SDS011;9277;37.980;23.748;2023-07-24T10:21:01;10.20;;;4.63;;
18302;SDS011;9277;37.980;23.748;2023-07-24T10:23:28;8.05;;;3.83;;
18302;SDS011;9277;37.980;23.748;2023-07-24T10:25:55;8.98;;;4.10;;
18302;SDS011;9277;37.980;23.748;2023-07-24T10:28:30;10.25;;;4.60;;
18302;SDS011;9277;37.980;23.748;2023-07-24T10:30:57;9.95;;;4.20;;
18302;SDS011;9277;37.980;23.748;2023-07-24T10:33:24;8.55;;;4.10;;
18302;SDS011;9277;37.980;23.748;2023-07-24T10:35:53;10.18;;;3.92;;
18302;SDS011;9277;37.980;23.748;2023-07-24T10:38:32;6.35;;;4.30;;
18302;SDS011;9277;37.980;23.748;2023-07-24T10:41:01;10.40;;;4.70;;
18302;SDS011;9277;37.980;23.748;2023-07-24T10:43:28;7.80;;;4.28;;
18302;SDS011;9277;37.980;23.748;2023-07-24T10:45:54;9.82;;;3.97;;
18302;SDS011;9277;37.980;23.748;2023-07-24T10:48:22;6.25;;;3.88;;
18302;SDS011;9277;37.980;23.748;2023-07-24T10:50:49;7.45;;;3.83;;
18302;SDS011;9277;37.980;23.748;2023-07-24T10:53:16;8.15;;;4.30;;
18302;SDS011;9277;37.980;23.748;2023-07-24T10:55:45;5.93;;;3.88;;
18302;SDS011;9277;37.980;23.748;2023-07-24T10:58:12;7.75;;;4.20;;
18302;SDS011;9277;37.980;23.748;2023-07-24T11:00:39;7.28;;;4.22;;
18302;SDS011;9277;37.980;23.748;2023-07-24T11:03:07;7.00;;;3.88;;
18302;SDS011;9277;37.980;23.748;2023-07-24T11:05:35;7.53;;;4.00;;
18302;SDS011;9277;37.980;23.748;2023-07-24T11:08:05;6.85;;;3.63;;
18302;SDS011;9277;37.980;23.748;2023-07-24T11:10:34;6.20;;;3.90;;
18302;SDS011;9277;37.980;23.748;2023-07-24T11:13:02;7.65;;;3.95;;
18302;SDS011;9277;37.980;23.748;2023-07-24T11:15:29;9.93;;;4.55;;
18302;SDS011;9277;37.980;23.748;2023-07-24T11:17:56;7.00;;;3.53;;
18302;SDS011;9277;37.980;23.748;2023-07-24T11:20:23;7.82;;;3.67;;
18302;SDS011;9277;37.980;23.748;2023-07-24T11:22:50;5.43;;;3.80;;
18302;SDS011;9277;37.980;23.748;2023-07-24T11:25:16;7.05;;;3.90;;
18302;SDS011;9277;37.980;23.748;2023-07-24T11:27:43;5.47;;;3.65;;
18302;SDS011;9277;37.980;23.748;2023-07-24T11:30:18;5.75;;;4.05;;
18302;SDS011;9277;37.980;23.748;2023-07-24T11:32:45;11.18;;;4.30;;
18302;SDS011;9277;37.980;23.748;2023-07-24T11:35:12;6.30;;;4.03;;
18302;SDS011;9277;37.980;23.748;2023-07-24T11:37:39;16.42;;;4.35;;
18302;SDS011;9277;37.980;23.748;2023-07-24T11:40:06;9.45;;;4.15;;
18302;SDS011;9277;37.980;23.748;2023-07-24T11:42:38;6.22;;;3.83;;
18302;SDS011;9277;37.980;23.748;2023-07-24T11:45:06;4.43;;;3.30;;
18302;SDS011;9277;37.980;23.748;2023-07-24T11:47:42;5.97;;;4.00;;
18302;SDS011;9277;37.980;23.748;2023-07-24T11:50:08;6.30;;;4.15;;
18302;SDS011;9277;37.980;23.748;2023-07-24T11:52:39;7.32;;;4.25;;
18302;SDS011;9277;37.980;23.748;2023-07-24T11:55:07;5.75;;;3.78;;
18302;SDS011;9277;37.980;23.748;2023-07-24T11:57:33;7.68;;;4.05;;
18302;SDS011;9277;37.980;23.748;2023-07-24T12:00:00;5.90;;;3.90;;
18302;SDS011;9277;37.980;23.748;2023-07-24T12:02:27;8.70;;;3.95;;
18302;SDS011;9277;37.980;23.748;2023-07-24T12:04:56;10.25;;;4.05;;
18302;SDS011;9277;37.980;23.748;2023-07-24T12:07:28;7.78;;;3.90;;
18302;SDS011;9277;37.980;23.748;2023-07-24T12:09:55;7.10;;;3.75;;
18302;SDS011;9277;37.980;23.748;2023-07-24T12:12:22;6.20;;;3.78;;
18302;SDS011;9277;37.980;23.748;2023-07-24T12:14:50;8.32;;;3.85;;
18302;SDS011;9277;37.980;23.748;2023-07-24T12:17:17;8.38;;;3.80;;
18302;SDS011;9277;37.980;23.748;2023-07-24T12:19:45;7.30;;;4.07;;
18302;SDS011;9277;37.980;23.748;2023-07-24T12:22:13;6.93;;;4.35;;
18302;SDS011;9277;37.980;23.748;2023-07-24T12:24:40;8.15;;;4.15;;
18302;SDS011;9277;37.980;23.748;2023-07-24T12:27:07;6.38;;;4.00;;
18302;SDS011;9277;37.980;23.748;2023-07-24T12:29:32;8.50;;;3.90;;
18302;SDS011;9277;37.980;23.748;2023-07-24T12:31:59;8.38;;;3.92;;
18302;SDS011;9277;37.980;23.748;2023-07-24T12:34:26;5.00;;;3.67;;
18302;SDS011;9277;37.980;23.748;2023-07-24T12:36:53;7.60;;;3.78;;
18302;SDS011;9277;37.980;23.748;2023-07-24T12:39:21;5.72;;;3.60;;
18302;SDS011;9277;37.980;23.748;2023-07-24T12:41:48;8.95;;;4.15;;
18302;SDS011;9277;37.980;23.748;2023-07-24T12:44:14;7.45;;;4.03;;
18302;SDS011;9277;37.980;23.748;2023-07-24T12:46:41;5.45;;;4.10;;
18302;SDS011;9277;37.980;23.748;2023-07-24T12:49:08;6.43;;;4.18;;
18302;SDS011;9277;37.980;23.748;2023-07-24T12:51:34;5.43;;;3.90;;
18302;SDS011;9277;37.980;23.748;2023-07-24T12:54:01;5.82;;;4.32;;
18302;SDS011;9277;37.980;23.748;2023-07-24T12:56:29;11.57;;;4.38;;
18302;SDS011;9277;37.980;23.748;2023-07-24T12:58:56;6.38;;;3.90;;
18302;SDS011;9277;37.980;23.748;2023-07-24T13:01:23;7.47;;;3.88;;
18302;SDS011;9277;37.980;23.748;2023-07-24T13:03:52;7.68;;;4.00;;
18302;SDS011;9277;37.980;23.748;2023-07-24T13:06:19;5.70;;;3.53;;
18302;SDS011;9277;37.980;23.748;2023-07-24T13:08:46;6.00;;;4.03;;
18302;SDS011;9277;37.980;23.748;2023-07-24T13:11:12;6.55;;;3.85;;
18302;SDS011;9277;37.980;23.748;2023-07-24T13:13:40;5.43;;;3.90;;
18302;SDS011;9277;37.980;23.748;2023-07-24T13:16:07;6.15;;;3.72;;
18302;SDS011;9277;37.980;23.748;2023-07-24T13:18:34;5.97;;;3.92;;
18302;SDS011;9277;37.980;23.748;2023-07-24T13:21:01;8.77;;;3.90;;
18302;SDS011;9277;37.980;23.748;2023-07-24T13:23:28;7.60;;;3.97;;
18302;SDS011;9277;37.980;23.748;2023-07-24T13:25:54;7.22;;;4.40;;
18302;SDS011;9277;37.980;23.748;2023-07-24T13:28:21;7.40;;;4.10;;
18302;SDS011;9277;37.980;23.748;2023-07-24T13:30:49;5.55;;;3.53;;
18302;SDS011;9277;37.980;23.748;2023-07-24T13:33:16;9.23;;;3.63;;
18302;SDS011;9277;37.980;23.748;2023-07-24T13:35:44;7.25;;;4.50;;
18302;SDS011;9277;37.980;23.748;2023-07-24T13:38:11;10.77;;;4.60;;
18302;SDS011;9277;37.980;23.748;2023-07-24T13:40:38;12.90;;;3.90;;
18302;SDS011;9277;37.980;23.748;2023-07-24T13:43:05;4.97;;;3.80;;
18302;SDS011;9277;37.980;23.748;2023-07-24T13:45:32;6.50;;;4.25;;
18302;SDS011;9277;37.980;23.748;2023-07-24T13:48:00;8.50;;;4.38;;
18302;SDS011;9277;37.980;23.748;2023-07-24T13:50:27;10.50;;;3.90;;
18302;SDS011;9277;37.980;23.748;2023-07-24T13:52:54;8.02;;;3.97;;
18302;SDS011;9277;37.980;23.748;2023-07-24T13:55:20;6.72;;;4.00;;
18302;SDS011;9277;37.980;23.748;2023-07-24T13:57:47;9.18;;;3.72;;
18302;SDS011;9277;37.980;23.748;2023-07-24T14:00:14;8.52;;;3.53;;
18302;SDS011;9277;37.980;23.748;2023-07-24T14:02:41;7.53;;;4.05;;
18302;SDS011;9277;37.980;23.748;2023-07-24T14:05:09;6.95;;;3.53;;
18302;SDS011;9277;37.980;23.748;2023-07-24T14:07:36;8.63;;;4.28;;
18302;SDS011;9277;37.980;23.748;2023-07-24T14:10:03;6.68;;;4.07;;
18302;SDS011;9277;37.980;23.748;2023-07-24T14:12:30;5.22;;;4.18;;
18302;SDS011;9277;37.980;23.748;2023-07-24T14:14:56;8.77;;;3.60;;
18302;SDS011;9277;37.980;23.748;2023-07-24T14:17:23;8.68;;;3.78;;
18302;SDS011;9277;37.980;23.748;2023-07-24T14:19:50;6.05;;;3.63;;
18302;SDS011;9277;37.980;23.748;2023-07-24T14:22:18;5.15;;;3.70;;
18302;SDS011;9277;37.980;23.748;2023-07-24T14:24:44;10.45;;;3.42;;
18302;SDS011;9277;37.980;23.748;2023-07-24T14:27:12;8.82;;;3.90;;
18302;SDS011;9277;37.980;23.748;2023-07-24T14:29:38;5.45;;;3.50;;
18302;SDS011;9277;37.980;23.748;2023-07-24T14:32:06;7.00;;;3.65;;
18302;SDS011;9277;37.980;23.748;2023-07-24T14:34:33;6.72;;;4.20;;
18302;SDS011;9277;37.980;23.748;2023-07-24T14:37:00;5.75;;;3.63;;
18302;SDS011;9277;37.980;23.748;2023-07-24T14:39:28;5.00;;;3.55;;
18302;SDS011;9277;37.980;23.748;2023-07-24T14:41:55;12.43;;;3.38;;
18302;SDS011;9277;37.980;23.748;2023-07-24T14:44:22;6.03;;;3.40;;